Terminal Aerodrome Forecast
Issued by NWS

Current Version | Previous Version | Graphics & Text | Print | Product List | Glossary On
Versions: 1 2 3 4 5 6 7 8 9 10 11 12 13 14 15 16 17 18 19 20
000
FTUS41 KILN 200524
TAFLUK
TAF
KLUK 200524Z 2006/2106 VRB04KT P6SM -RA OVC022
      TEMPO 2006/2009 1SM RA BR OVC015
     FM201200 18005KT 3SM BR OVC008
     FM201600 21005KT 5SM BR BKN011
     FM202100 18003KT P6SM BKN025
     FM210300 18004KT P6SM BKN012=

USA.gov is the U.S. government's official web portal to all federal, state and local government web resources and services.